Iredell, Texas
Current Conditions -  °F | °C
As of 11:35 PM on Wednesday 22 Oct 2014 (Local Time) from KSEP Reporting Station
Scattered Clouds Scattered Clouds  
Wind Chill: 69°   Ceiling: Unl
Heat Index: 69°   Visibility: 10mi
Dew Point: 56°   Wind: 6mph
Humidity: 64%   Direction: 140°SE
Pressure: 30.14"   Gusts: NA
Location:  31.99°N, 97.87°W
Report Text: KSEP 230435Z AUTO 14005KT 10SM SCT120 21/14 A3014 RMK AO2 T02060136
Loading
Personal Weather Stations






























Interactive Weather Map
Tropical Storm Tracking
New forecast layout! Learn more

10-Day Weather Forecast

Advertisements
Track Severe Weather on mobile